createdAt,value
2022-10-17T00:02:25.766Z,100778.66
2022-10-17T00:04:52.754Z,100787.28
2022-10-17T00:07:19.826Z,100782.03
2022-10-17T00:09:46.656Z,100788.16
2022-10-17T00:12:13.589Z,100777.78
2022-10-17T00:14:40.667Z,100774.34
2022-10-17T00:17:07.624Z,100782.13
2022-10-17T00:19:35.325Z,100791.63
2022-10-17T00:22:02.245Z,100787.19
2022-10-17T00:24:31.345Z,100784.53
2022-10-17T00:26:58.266Z,100790.56
2022-10-17T00:29:25.775Z,100786.25
2022-10-17T00:31:58.867Z,100788.00
2022-10-17T00:34:26.191Z,100786.22
2022-10-17T00:36:53.227Z,100794.84
2022-10-17T00:39:20.830Z,100797.41
2022-10-17T00:41:47.934Z,100802.56
2022-10-17T00:44:33.667Z,100811.19
2022-10-17T00:47:05.247Z,100805.13
2022-10-17T00:49:35.386Z,100804.25
2022-10-17T00:52:06.906Z,100799.91
2022-10-17T00:54:37.651Z,100797.28
2022-10-17T00:57:05.189Z,100805.94
2022-10-17T00:59:34.995Z,100809.41
2022-10-17T01:02:17.355Z,100806.75
2022-10-17T01:04:47.049Z,100810.22
2022-10-17T01:07:14.424Z,100813.69
2022-10-17T01:09:42.053Z,100816.28
2022-10-17T01:12:24.126Z,100824.91
2022-10-17T01:15:19.309Z,100820.50
2022-10-17T01:18:11.384Z,100833.50
2022-10-17T01:21:03.215Z,100836.09
2022-10-17T01:24:02.403Z,100838.69
2022-10-17T01:27:20.427Z,100844.78
2022-10-17T01:30:10.926Z,100849.16
2022-10-17T01:32:47.491Z,100839.63
2022-10-17T01:35:24.147Z,100830.16
2022-10-17T01:38:27.755Z,100833.66
2022-10-17T01:41:10.954Z,100842.28
2022-10-17T01:43:43.971Z,100840.47
2022-10-17T01:46:18.628Z,100849.16
2022-10-17T01:48:47.571Z,100859.53
2022-10-17T01:51:25.208Z,100861.28
2022-10-17T01:54:15.114Z,100857.81
2022-10-17T01:56:43.745Z,100856.94
2022-10-17T01:59:33.594Z,100869.09
2022-10-17T02:02:02.116Z,100875.19
2022-10-17T02:04:29.467Z,100868.19
2022-10-17T02:06:56.513Z,100873.41
2022-10-17T02:09:27.457Z,100875.94
2022-10-17T02:12:09.831Z,100877.69
2022-10-17T02:14:36.866Z,100868.13
2022-10-17T02:17:15.030Z,100855.97
2022-10-17T02:19:58.185Z,100858.50
2022-10-17T02:22:48.544Z,100867.16
2022-10-17T02:25:21.446Z,100879.28
2022-10-17T02:27:59.270Z,100881.19
2022-10-17T02:30:37.693Z,100879.56
2022-10-17T02:33:10.345Z,100888.97
2022-10-17T02:35:42.004Z,100881.94
2022-10-17T02:38:11.266Z,100887.06
2022-10-17T02:40:40.147Z,100888.88
2022-10-17T02:43:07.435Z,100898.38
2022-10-17T02:45:37.286Z,100905.22
2022-10-17T02:48:37.854Z,100900.81
2022-10-17T02:51:23.564Z,100904.25
2022-10-17T02:54:09.275Z,100910.41
2022-10-17T02:56:44.431Z,100911.41
2022-10-17T02:59:14.646Z,100921.94
2022-10-17T03:01:43.777Z,100912.44
2022-10-17T03:04:14.955Z,100905.44
2022-10-17T03:06:42.725Z,100905.41
2022-10-17T03:09:09.708Z,100914.88
2022-10-17T03:11:36.804Z,100926.06
2022-10-17T03:14:04.662Z,100937.34
2022-10-17T03:16:32.152Z,100941.75
2022-10-17T03:18:59.241Z,100940.03
2022-10-17T03:21:26.364Z,100936.50
2022-10-17T03:23:53.426Z,100929.50
2022-10-17T03:26:22.536Z,100925.94
2022-10-17T03:28:53.496Z,100920.63
2022-10-17T03:31:22.963Z,100931.81
2022-10-17T03:33:51.592Z,100932.63
2022-10-17T03:36:19.608Z,100923.16
2022-10-17T03:38:47.921Z,100927.41
2022-10-17T03:41:16.946Z,100936.00
2022-10-17T03:43:43.869Z,100931.66
2022-10-17T03:46:10.930Z,100929.22
2022-10-17T03:48:38.425Z,100922.34
2022-10-17T03:51:08.213Z,100929.22
2022-10-17T03:53:41.016Z,100933.56
2022-10-17T03:56:16.168Z,100932.66
2022-10-17T03:58:45.268Z,100943.06
2022-10-17T04:01:15.273Z,100945.91
2022-10-17T04:03:43.104Z,100948.63
2022-10-17T04:06:12.908Z,100961.56
2022-10-17T04:08:43.302Z,100971.03
2022-10-17T04:11:16.782Z,100966.69
2022-10-17T04:13:45.085Z,100961.50
2022-10-17T04:16:18.653Z,100963.22
2022-10-17T04:18:55.543Z,100954.56
2022-10-17T04:21:25.366Z,100958.06
2022-10-17T04:23:56.763Z,100964.94
2022-10-17T04:26:40.504Z,100955.41
2022-10-17T04:29:07.694Z,100957.16
2022-10-17T04:31:34.929Z,100958.88
2022-10-17T04:34:10.003Z,100956.28
2022-10-17T04:36:38.229Z,100954.63
2022-10-17T04:39:06.104Z,100959.88
2022-10-17T04:41:33.329Z,100957.34
2022-10-17T04:44:02.305Z,100957.41
2022-10-17T04:46:34.366Z,100964.34
2022-10-17T04:49:01.388Z,100960.03
2022-10-17T04:51:29.317Z,100964.41
2022-10-17T04:54:22.567Z,100954.94
2022-10-17T04:56:55.896Z,100977.47
2022-10-17T04:59:23.048Z,100972.31
2022-10-17T05:02:04.906Z,100974.06
2022-10-17T05:04:33.608Z,100968.91
2022-10-17T05:07:00.706Z,100983.69
2022-10-17T05:09:46.192Z,100982.03
2022-10-17T05:12:13.465Z,100976.91
2022-10-17T05:14:44.403Z,100983.88
2022-10-17T05:17:11.530Z,100988.16
2022-10-17T05:19:39.274Z,100983.00
2022-10-17T05:22:08.256Z,100979.53
2022-10-17T05:24:35.526Z,100990.81
2022-10-17T05:27:03.696Z,100984.78
2022-10-17T05:29:30.736Z,100983.94
2022-10-17T05:32:06.252Z,100988.31
2022-10-17T05:34:35.132Z,100993.53
2022-10-17T05:37:02.107Z,100997.00
2022-10-17T05:39:29.425Z,100997.84
2022-10-17T05:41:57.886Z,101004.78
2022-10-17T05:44:25.230Z,101000.50
2022-10-17T05:46:55.990Z,101005.72
2022-10-17T05:49:33.333Z,100998.81
2022-10-17T05:52:10.484Z,101003.16
2022-10-17T05:54:51.464Z,101010.09
2022-10-17T05:57:18.883Z,101010.16
2022-10-17T05:59:45.807Z,100998.88
2022-10-17T06:02:19.699Z,100998.88
2022-10-17T06:04:48.927Z,100989.38
2022-10-17T06:07:17.470Z,100988.53
2022-10-17T06:12:13.224Z,101005.97
2022-10-17T06:14:41.783Z,101002.56
2022-10-17T06:17:13.427Z,101002.63
2022-10-17T06:19:44.985Z,101017.38
2022-10-17T06:22:15.173Z,101025.25
2022-10-17T06:24:42.774Z,101027.06
2022-10-17T06:27:11.980Z,101021.91
2022-10-17T06:29:41.243Z,101028.94
2022-10-17T06:32:11.159Z,101029.88
2022-10-17T06:34:42.379Z,101030.91
2022-10-17T06:37:09.912Z,101037.06
2022-10-17T06:39:39.177Z,101038.88
2022-10-17T06:42:18.962Z,101042.41
2022-10-17T06:44:49.399Z,101045.94
2022-10-17T06:47:36.044Z,101045.91
2022-10-17T06:50:12.464Z,101044.22
2022-10-17T06:52:51.822Z,101047.72
2022-10-17T06:55:37.463Z,101030.34
2022-10-17T06:58:20.483Z,101030.38
2022-10-17T07:01:01.434Z,101044.28
2022-10-17T07:03:29.261Z,101049.53
2022-10-17T07:05:56.983Z,101050.44
2022-10-17T07:08:24.902Z,101058.25
2022-10-17T07:10:53.584Z,101053.91
2022-10-17T07:13:21.183Z,101053.91
2022-10-17T07:15:48.545Z,101053.00
2022-10-17T07:18:17.994Z,101055.66
2022-10-17T07:20:53.845Z,101059.13
2022-10-17T07:23:21.502Z,101056.56
2022-10-17T07:25:48.635Z,101041.75
2022-10-17T07:28:17.883Z,101047.00
2022-10-17T07:30:49.304Z,101046.09
2022-10-17T07:33:17.789Z,101065.28
2022-10-17T07:35:44.903Z,101067.88
2022-10-17T07:38:11.925Z,101064.38
2022-10-17T07:40:39.022Z,101069.59
2022-10-17T07:43:06.682Z,101064.38
2022-10-17T07:45:33.783Z,101060.91
2022-10-17T07:48:00.802Z,101053.06
2022-10-17T07:50:27.884Z,101062.59
2022-10-17T07:52:54.906Z,101067.78
2022-10-17T07:55:22.111Z,101065.97
2022-10-17T07:57:49.093Z,101078.13
2022-10-17T08:00:16.088Z,101073.72
2022-10-17T08:02:43.062Z,101068.44
2022-10-17T08:05:10.142Z,101072.78
2022-10-17T08:07:37.203Z,101071.81
2022-10-17T08:10:04.685Z,101067.34
2022-10-17T08:12:34.507Z,101060.25
2022-10-17T08:15:02.528Z,101061.81
2022-10-17T08:17:29.963Z,101055.56
2022-10-17T08:19:57.062Z,101059.75
2022-10-17T08:22:24.183Z,101054.38
2022-10-17T08:24:51.150Z,101049.91
2022-10-17T08:27:23.983Z,101047.34
2022-10-17T08:29:54.695Z,101044.66
2022-10-17T08:32:24.986Z,101050.72
2022-10-17T08:34:55.763Z,101050.66
2022-10-17T08:37:23.605Z,101041.88
2022-10-17T08:39:50.637Z,101042.78
2022-10-17T08:42:20.442Z,101043.72
2022-10-17T08:45:01.486Z,101035.03
2022-10-17T08:47:41.386Z,101036.75
2022-10-17T08:50:29.785Z,101039.25
2022-10-17T08:53:35.811Z,101041.69
2022-10-17T08:56:11.959Z,101045.06
2022-10-17T08:58:42.344Z,101037.94
2022-10-17T09:01:30.926Z,101039.53
2022-10-17T09:04:03.852Z,101041.91
2022-10-17T09:06:38.162Z,101040.84
2022-10-17T09:09:14.200Z,101038.09
2022-10-17T09:12:02.705Z,101037.13
2022-10-17T09:14:49.404Z,101031.78
2022-10-17T09:17:38.705Z,101024.72
2022-10-17T09:20:30.347Z,101031.72
2022-10-17T09:23:04.462Z,101026.31
2022-10-17T09:25:39.963Z,101031.44
2022-10-17T09:28:31.441Z,101025.09
2022-10-17T09:31:00.225Z,101024.19
2022-10-17T09:33:59.203Z,101020.75
2022-10-17T09:36:35.610Z,101015.44
2022-10-17T09:39:05.626Z,101019.72
2022-10-17T09:41:46.805Z,101018.56
2022-10-17T09:44:32.900Z,101016.47
2022-10-17T09:47:25.211Z,101032.94
2022-10-17T09:49:52.873Z,101030.16
2022-10-17T09:52:29.094Z,101024.72
2022-10-17T09:55:20.703Z,101023.75
2022-10-17T09:58:06.434Z,101023.69
2022-10-17T10:00:35.074Z,101017.50
2022-10-17T10:03:21.804Z,101020.09
2022-10-17T10:06:13.422Z,101022.78
2022-10-17T10:08:55.418Z,101020.09
2022-10-17T10:11:40.875Z,101022.50
2022-10-17T10:14:13.692Z,101023.38
2022-10-17T10:16:43.544Z,101014.63
2022-10-17T10:19:31.204Z,101013.78
2022-10-17T10:22:19.425Z,101014.59
2022-10-17T10:24:46.702Z,101012.84
2022-10-17T10:27:16.462Z,101006.63
2022-10-17T10:29:49.503Z,101010.84
2022-10-17T10:32:34.263Z,101006.09
2022-10-17T10:35:06.304Z,101011.06
2022-10-17T10:37:38.702Z,101003.72
2022-10-17T10:40:08.199Z,101002.72
2022-10-17T10:42:39.985Z,101007.84
2022-10-17T10:45:09.422Z,101012.03
2022-10-17T10:47:59.124Z,101005.00
2022-10-17T10:50:49.582Z,101003.19
2022-10-17T10:53:47.410Z,100998.84
2022-10-17T10:56:21.626Z,100989.13
2022-10-17T10:58:56.185Z,100991.66
2022-10-17T11:01:41.904Z,100981.94
2022-10-17T11:04:23.882Z,100985.44
2022-10-17T11:06:51.422Z,100977.41
2022-10-17T11:09:36.943Z,100974.78
2022-10-17T11:12:25.982Z,100977.31
2022-10-17T11:15:14.742Z,100963.00
2022-10-17T11:18:04.704Z,100955.81
2022-10-17T11:20:34.662Z,100951.00
2022-10-17T11:23:39.243Z,100942.72
2022-10-17T11:26:11.644Z,100933.56
2022-10-17T11:28:38.771Z,100938.91
2022-10-17T11:31:15.103Z,100942.78
2022-10-17T11:33:54.543Z,100943.88
2022-10-17T11:36:26.402Z,100929.72
2022-10-17T11:39:04.343Z,100930.25
2022-10-17T11:41:36.604Z,100917.44
2022-10-17T11:44:20.722Z,100922.25
2022-10-17T11:46:51.683Z,100912.19
2022-10-17T11:49:24.297Z,100921.72
2022-10-17T11:52:54.934Z,100920.72
2022-10-17T11:55:28.543Z,100909.13
2022-10-17T11:58:18.001Z,100900.34
2022-10-17T12:01:16.326Z,100904.00
2022-10-17T12:03:53.543Z,100908.44
2022-10-17T12:06:51.171Z,100916.38
2022-10-17T12:09:24.523Z,100908.84
2022-10-17T12:11:57.614Z,100903.78
2022-10-17T12:14:41.675Z,100907.53
2022-10-17T12:17:38.973Z,100908.31
2022-10-17T12:20:44.783Z,100895.88
2022-10-17T12:23:12.743Z,100900.28
2022-10-17T12:26:04.626Z,100893.28
2022-10-17T12:28:41.378Z,100892.50
2022-10-17T12:31:18.063Z,100884.69
2022-10-17T12:33:50.506Z,100884.84
2022-10-17T12:36:17.564Z,100882.97
2022-10-17T12:39:07.817Z,100871.19
2022-10-17T12:41:41.488Z,100857.75
2022-10-17T12:44:14.925Z,100855.03
2022-10-17T12:47:08.698Z,100846.25
2022-10-17T12:49:56.500Z,100838.19
2022-10-17T12:52:37.343Z,100837.16
2022-10-17T12:55:12.192Z,100831.97
2022-10-17T12:58:08.227Z,100830.25
2022-10-17T13:01:18.941Z,100817.09
2022-10-17T13:03:48.483Z,100821.66
2022-10-17T13:06:21.488Z,100812.88
2022-10-17T13:08:59.767Z,100824.38
2022-10-17T13:11:31.903Z,100816.47
2022-10-17T13:14:01.500Z,100825.22
2022-10-17T13:16:38.180Z,100816.28
2022-10-17T13:19:14.803Z,100810.84
2022-10-17T13:22:17.324Z,100804.50
2022-10-17T13:24:44.544Z,100812.56
2022-10-17T13:27:31.384Z,100815.31
2022-10-17T13:30:02.550Z,100809.44
2022-10-17T13:32:41.159Z,100804.25
2022-10-17T13:35:14.761Z,100792.03
2022-10-17T13:37:48.191Z,100789.41
2022-10-17T13:43:15.782Z,100788.50
2022-10-17T13:45:49.163Z,100773.53
2022-10-17T13:48:27.944Z,100770.72
2022-10-17T13:51:02.687Z,100766.25
2022-10-17T13:53:31.940Z,100748.72
2022-10-17T13:56:28.798Z,100757.13
2022-10-17T13:59:05.193Z,100752.22
2022-10-17T14:01:32.623Z,100749.69
2022-10-17T14:04:09.430Z,100742.78
2022-10-17T14:06:46.272Z,100748.22
2022-10-17T14:09:28.044Z,100746.59
2022-10-17T14:12:13.759Z,100752.88
2022-10-17T14:15:08.735Z,100755.66
2022-10-17T14:17:29.719Z,100754.84
2022-10-17T14:20:36.333Z,100747.88
2022-10-17T14:23:10.783Z,100743.31
2022-10-17T14:25:40.212Z,100738.84
2022-10-17T14:28:15.247Z,100732.69
2022-10-17T14:30:58.856Z,100729.13
2022-10-17T14:33:31.118Z,100735.22
2022-10-17T14:36:00.599Z,100736.06
2022-10-17T14:38:28.720Z,100732.53
2022-10-17T14:41:30.272Z,100737.84
2022-10-17T14:43:59.463Z,100732.63
2022-10-17T14:46:27.150Z,100738.84
2022-10-17T14:48:56.744Z,100733.75
2022-10-17T14:51:23.883Z,100727.69
2022-10-17T14:54:30.885Z,100729.59
2022-10-17T14:56:58.137Z,100723.59
2022-10-17T14:59:52.029Z,100723.75
2022-10-17T15:02:13.534Z,100713.25
2022-10-17T15:04:40.965Z,100714.19
2022-10-17T15:07:09.817Z,100710.81
2022-10-17T15:09:36.776Z,100707.44
2022-10-17T15:12:06.889Z,100705.84
2022-10-17T15:14:33.934Z,100701.53
2022-10-17T15:17:01.002Z,100699.03
2022-10-17T15:19:28.142Z,100702.69
2022-10-17T15:21:55.218Z,100701.06
2022-10-17T15:24:22.116Z,100699.41
2022-10-17T15:26:49.740Z,100689.91
2022-10-17T15:29:16.843Z,100689.97
2022-10-17T15:31:43.838Z,100693.50
2022-10-17T15:34:10.969Z,100694.44
2022-10-17T15:36:41.966Z,100680.34
2022-10-17T15:39:09.909Z,100685.56
2022-10-17T15:41:36.837Z,100691.69
2022-10-17T15:44:03.917Z,100689.97
2022-10-17T15:46:33.586Z,100689.19
2022-10-17T15:49:11.746Z,100702.47
2022-10-17T15:51:39.097Z,100703.47
2022-10-17T15:54:06.719Z,100698.38
2022-10-17T15:56:38.730Z,100704.72
2022-10-17T15:59:08.724Z,100696.16
2022-10-17T16:01:36.144Z,100698.84
2022-10-17T16:04:03.852Z,100693.69
2022-10-17T16:06:31.156Z,100689.34
2022-10-17T16:08:58.323Z,100686.75
2022-10-17T16:11:32.985Z,100685.91
2022-10-17T16:14:02.558Z,100686.84
2022-10-17T16:16:30.464Z,100683.34
2022-10-17T16:18:57.445Z,100674.56
2022-10-17T16:24:03.006Z,100676.28
2022-10-17T16:26:30.324Z,100670.19
2022-10-17T16:28:58.362Z,100671.91
2022-10-17T16:31:29.501Z,100662.19
2022-10-17T16:33:57.867Z,100659.50
2022-10-17T16:36:25.147Z,100666.47
2022-10-17T16:38:54.136Z,100660.44
2022-10-17T16:41:24.746Z,100656.75
2022-10-17T16:43:53.387Z,100658.44
2022-10-17T16:46:21.126Z,100652.31
2022-10-17T16:48:48.727Z,100658.44
2022-10-17T16:51:18.108Z,100656.72
2022-10-17T16:53:46.447Z,100648.00
2022-10-17T16:56:15.794Z,100654.06
2022-10-17T16:58:43.066Z,100643.66
2022-10-17T17:01:13.524Z,100644.53
2022-10-17T17:03:42.464Z,100651.72
2022-10-17T17:06:12.981Z,100644.53
2022-10-17T17:08:40.724Z,100641.88
2022-10-17T17:11:12.906Z,100630.56
2022-10-17T17:13:41.264Z,100632.25
2022-10-17T17:16:09.888Z,100622.56
2022-10-17T17:18:37.424Z,100632.19
2022-10-17T17:21:06.280Z,100630.50
2022-10-17T17:23:35.425Z,100625.22
2022-10-17T17:26:05.071Z,100619.03
2022-10-17T17:28:33.290Z,100615.56
2022-10-17T17:31:01.760Z,100616.41
2022-10-17T17:33:30.310Z,100623.31
2022-10-17T17:35:58.835Z,100612.00
2022-10-17T17:38:26.861Z,100613.53
2022-10-17T17:40:54.062Z,100620.38
2022-10-17T17:43:21.504Z,100614.94
2022-10-17T17:45:48.495Z,100607.00
2022-10-17T17:48:15.731Z,100613.22
2022-10-17T17:50:43.368Z,100613.19
2022-10-17T17:53:11.544Z,100604.38
2022-10-17T17:55:38.527Z,100609.63
2022-10-17T17:58:06.154Z,100601.75
2022-10-17T18:00:33.346Z,100599.97
2022-10-17T18:03:00.423Z,100600.81
2022-10-17T18:05:27.544Z,100590.16
2022-10-17T18:07:54.663Z,100584.78
2022-10-17T18:10:21.668Z,100580.34
2022-10-17T18:12:48.694Z,100592.47
2022-10-17T18:15:16.053Z,100593.38
2022-10-17T18:17:43.283Z,100581.06
2022-10-17T18:20:10.849Z,100578.44
2022-10-17T18:22:38.123Z,100582.78
2022-10-17T18:25:06.911Z,100587.06
2022-10-17T18:27:34.039Z,100579.16
2022-10-17T18:30:01.104Z,100569.47
2022-10-17T18:32:31.756Z,100576.44
2022-10-17T18:34:59.379Z,100571.25
2022-10-17T18:37:26.793Z,100566.66
2022-10-17T18:39:56.054Z,100568.28
2022-10-17T18:42:23.386Z,100569.06
2022-10-17T18:44:50.768Z,100576.13
2022-10-17T18:47:17.837Z,100574.28
2022-10-17T18:49:45.054Z,100563.69
2022-10-17T18:52:12.005Z,100571.72
2022-10-17T18:54:39.183Z,100574.44
2022-10-17T18:57:06.404Z,100570.84
2022-10-17T18:59:33.665Z,100580.56
2022-10-17T19:02:00.864Z,100570.94
2022-10-17T19:04:28.085Z,100572.75
2022-10-17T19:06:55.204Z,100558.66
2022-10-17T19:09:22.344Z,100565.66
2022-10-17T19:11:49.369Z,100565.66
2022-10-17T19:14:16.442Z,100565.72
2022-10-17T19:16:46.088Z,100557.09
2022-10-17T19:19:20.818Z,100560.63
2022-10-17T19:21:48.535Z,100557.16
2022-10-17T19:24:19.316Z,100553.66
2022-10-17T19:26:47.575Z,100558.09
2022-10-17T19:29:15.680Z,100564.28
2022-10-17T19:31:43.419Z,100557.38
2022-10-17T19:34:11.779Z,100547.75
2022-10-17T19:36:39.366Z,100553.00
2022-10-17T19:39:10.547Z,100542.63
2022-10-17T19:41:38.985Z,100539.19
2022-10-17T19:44:07.309Z,100542.72
2022-10-17T19:46:35.426Z,100548.91
2022-10-17T19:49:03.721Z,100546.34
2022-10-17T19:51:31.604Z,100543.78
2022-10-17T19:54:03.300Z,100549.91
2022-10-17T19:56:31.491Z,100561.25
2022-10-17T19:58:59.694Z,100544.69
2022-10-17T20:01:29.459Z,100541.34
2022-10-17T20:03:57.487Z,100551.03
2022-10-17T20:06:25.225Z,100551.09
2022-10-17T20:08:53.071Z,100545.72
2022-10-17T20:11:25.431Z,100556.25
2022-10-17T20:13:53.743Z,100544.72
2022-10-17T20:16:23.472Z,100540.31
2022-10-17T20:18:51.906Z,100548.22
2022-10-17T20:21:24.959Z,100550.91
2022-10-17T20:23:52.182Z,100550.00
2022-10-17T20:26:37.133Z,100550.91
2022-10-17T20:29:11.489Z,100559.72
2022-10-17T20:31:40.028Z,100546.59
2022-10-17T20:34:07.404Z,100551.91
2022-10-17T20:36:37.444Z,100559.00
2022-10-17T20:39:05.865Z,100562.63
2022-10-17T20:41:33.329Z,100566.97
2022-10-17T20:44:00.479Z,100562.69
2022-10-17T20:46:36.892Z,100565.44
2022-10-17T20:49:08.131Z,100556.69
2022-10-17T20:51:35.951Z,100562.00
2022-10-17T20:54:03.658Z,100560.34
2022-10-17T20:56:32.505Z,100555.03
2022-10-17T20:59:01.827Z,100555.91
2022-10-17T21:01:30.043Z,100555.81
2022-10-17T21:04:06.196Z,100552.13
2022-10-17T21:06:43.247Z,100553.81
2022-10-17T21:09:10.366Z,100552.94
2022-10-17T21:11:37.369Z,100549.44
2022-10-17T21:14:06.288Z,100553.81
2022-10-17T21:16:35.629Z,100553.78
2022-10-17T21:19:03.931Z,100557.22
2022-10-17T21:21:36.108Z,100551.94
2022-10-17T21:24:05.594Z,100554.50
2022-10-17T21:26:34.458Z,100547.31
2022-10-17T21:29:05.616Z,100549.19
2022-10-17T21:31:43.644Z,100553.72
2022-10-17T21:34:13.008Z,100552.88
2022-10-17T21:36:40.328Z,100552.03
2022-10-17T21:41:34.414Z,100552.19
2022-10-17T21:44:07.764Z,100555.69
2022-10-17T21:46:34.909Z,100556.50
2022-10-17T21:49:01.852Z,100557.34
2022-10-17T21:51:29.065Z,100557.47
2022-10-17T21:53:57.411Z,100553.13
2022-10-17T21:56:28.265Z,100553.19
2022-10-17T21:58:55.749Z,100551.50
2022-10-17T22:01:28.255Z,100552.53
2022-10-17T22:03:57.266Z,100557.91
2022-10-17T22:06:43.012Z,100565.75
2022-10-17T22:09:16.289Z,100573.59
2022-10-17T22:11:46.672Z,100572.84
2022-10-17T22:14:16.714Z,100575.47
2022-10-17T22:16:45.360Z,100577.88
2022-10-17T22:19:14.767Z,100579.66
2022-10-17T22:21:41.667Z,100577.03
2022-10-17T22:24:12.787Z,100580.56
2022-10-17T22:26:40.621Z,100590.00
2022-10-17T22:29:08.804Z,100585.47
2022-10-17T22:31:36.074Z,100582.69
2022-10-17T22:34:05.160Z,100576.53
2022-10-17T22:36:33.167Z,100579.09
2022-10-17T22:39:00.237Z,100571.91
2022-10-17T22:41:27.154Z,100583.25
2022-10-17T22:43:54.581Z,100591.00
2022-10-17T22:46:21.648Z,100589.09
2022-10-17T22:48:48.632Z,100572.28
2022-10-17T22:51:15.785Z,100574.81
2022-10-17T22:53:42.826Z,100581.06
2022-10-17T22:56:12.469Z,100576.78
2022-10-17T22:58:39.669Z,100585.50
2022-10-17T23:01:08.490Z,100587.13
2022-10-17T23:03:35.907Z,100574.75
2022-10-17T23:06:03.395Z,100588.72
2022-10-17T23:08:30.587Z,100590.50
2022-10-17T23:10:57.755Z,100589.56
2022-10-17T23:13:25.041Z,100589.53
2022-10-17T23:15:53.505Z,100593.00
2022-10-17T23:18:21.810Z,100598.19
2022-10-17T23:20:49.245Z,100591.09
2022-10-17T23:23:16.824Z,100597.22
2022-10-17T23:25:43.943Z,100594.56
2022-10-17T23:28:11.185Z,100590.03
2022-10-17T23:30:39.304Z,100589.16
2022-10-17T23:33:07.074Z,100592.66
2022-10-17T23:35:34.624Z,100596.16
2022-10-17T23:38:01.798Z,100583.81
2022-10-17T23:40:29.902Z,100588.13
2022-10-17T23:42:56.984Z,100586.31
2022-10-17T23:45:24.000Z,100577.59
2022-10-17T23:47:51.066Z,100587.31
2022-10-17T23:50:18.156Z,100582.97
2022-10-17T23:52:45.248Z,100588.25
2022-10-17T23:55:12.194Z,100588.19
2022-10-17T23:57:39.192Z,100589.91
